sensor_id;sensor_type;location;lat;lon;timestamp;P1;durP1;ratioP1;P2;durP2;ratioP2
76863;SDS011;65834;52.364;9.754;2022-12-18T00:00:44;21.27;;;9.23;;
76863;SDS011;65834;52.364;9.754;2022-12-18T00:03:15;19.93;;;8.17;;
76863;SDS011;65834;52.364;9.754;2022-12-18T00:05:48;19.97;;;9.27;;
76863;SDS011;65834;52.364;9.754;2022-12-18T00:08:18;20.07;;;9.03;;
76863;SDS011;65834;52.364;9.754;2022-12-18T00:10:51;20.90;;;9.37;;
76863;SDS011;65834;52.364;9.754;2022-12-18T00:13:26;17.00;;;7.83;;
76863;SDS011;65834;52.364;9.754;2022-12-18T00:16:00;18.63;;;8.13;;
76863;SDS011;65834;52.364;9.754;2022-12-18T00:18:31;18.30;;;8.93;;
76863;SDS011;65834;52.364;9.754;2022-12-18T00:21:02;19.43;;;8.87;;
76863;SDS011;65834;52.364;9.754;2022-12-18T00:23:34;21.15;;;9.50;;
76863;SDS011;65834;52.364;9.754;2022-12-18T00:26:12;17.40;;;8.75;;
76863;SDS011;65834;52.364;9.754;2022-12-18T00:28:50;19.40;;;8.63;;
76863;SDS011;65834;52.364;9.754;2022-12-18T00:31:22;17.70;;;8.30;;
76863;SDS011;65834;52.364;9.754;2022-12-18T00:33:53;20.30;;;10.00;;
76863;SDS011;65834;52.364;9.754;2022-12-18T00:36:25;19.20;;;8.87;;
76863;SDS011;65834;52.364;9.754;2022-12-18T00:38:57;18.53;;;8.80;;
76863;SDS011;65834;52.364;9.754;2022-12-18T00:41:30;18.73;;;8.97;;
76863;SDS011;65834;52.364;9.754;2022-12-18T00:44:12;20.27;;;9.13;;
76863;SDS011;65834;52.364;9.754;2022-12-18T00:46:44;19.35;;;9.18;;
76863;SDS011;65834;52.364;9.754;2022-12-18T00:49:15;19.17;;;9.10;;
76863;SDS011;65834;52.364;9.754;2022-12-18T00:51:46;22.33;;;9.37;;
76863;SDS011;65834;52.364;9.754;2022-12-18T00:54:16;18.73;;;9.00;;
76863;SDS011;65834;52.364;9.754;2022-12-18T00:56:49;19.73;;;9.07;;
76863;SDS011;65834;52.364;9.754;2022-12-18T00:59:19;22.42;;;8.85;;
76863;SDS011;65834;52.364;9.754;2022-12-18T01:01:49;18.97;;;8.80;;
76863;SDS011;65834;52.364;9.754;2022-12-18T01:04:19;19.57;;;9.03;;
76863;SDS011;65834;52.364;9.754;2022-12-18T01:06:49;21.67;;;9.33;;
76863;SDS011;65834;52.364;9.754;2022-12-18T01:09:18;17.30;;;8.20;;
76863;SDS011;65834;52.364;9.754;2022-12-18T01:11:53;18.27;;;8.60;;
76863;SDS011;65834;52.364;9.754;2022-12-18T01:14:23;19.05;;;8.10;;
76863;SDS011;65834;52.364;9.754;2022-12-18T01:16:52;18.30;;;8.57;;
76863;SDS011;65834;52.364;9.754;2022-12-18T01:19:22;18.27;;;7.97;;
76863;SDS011;65834;52.364;9.754;2022-12-18T01:21:53;19.10;;;8.10;;
76863;SDS011;65834;52.364;9.754;2022-12-18T01:24:23;20.00;;;9.30;;
76863;SDS011;65834;52.364;9.754;2022-12-18T01:26:55;21.47;;;8.77;;
76863;SDS011;65834;52.364;9.754;2022-12-18T01:29:24;19.13;;;8.32;;
76863;SDS011;65834;52.364;9.754;2022-12-18T01:31:54;20.00;;;9.83;;
76863;SDS011;65834;52.364;9.754;2022-12-18T01:34:24;19.23;;;7.87;;
76863;SDS011;65834;52.364;9.754;2022-12-18T01:36:54;16.80;;;8.03;;
76863;SDS011;65834;52.364;9.754;2022-12-18T01:39:23;17.87;;;8.07;;
76863;SDS011;65834;52.364;9.754;2022-12-18T01:41:56;19.17;;;9.27;;
76863;SDS011;65834;52.364;9.754;2022-12-18T01:47:31;18.13;;;9.50;;
76863;SDS011;65834;52.364;9.754;2022-12-18T01:50:06;18.93;;;8.17;;
76863;SDS011;65834;52.364;9.754;2022-12-18T01:52:39;23.23;;;9.60;;
76863;SDS011;65834;52.364;9.754;2022-12-18T01:55:11;19.13;;;8.23;;
76863;SDS011;65834;52.364;9.754;2022-12-18T01:57:47;19.03;;;8.77;;
76863;SDS011;65834;52.364;9.754;2022-12-18T02:00:19;18.03;;;8.20;;
76863;SDS011;65834;52.364;9.754;2022-12-18T02:02:50;19.63;;;8.52;;
76863;SDS011;65834;52.364;9.754;2022-12-18T02:05:22;19.67;;;8.53;;
76863;SDS011;65834;52.364;9.754;2022-12-18T02:08:00;19.23;;;8.30;;
76863;SDS011;65834;52.364;9.754;2022-12-18T02:10:40;20.23;;;9.13;;
76863;SDS011;65834;52.364;9.754;2022-12-18T02:13:22;19.53;;;9.17;;
76863;SDS011;65834;52.364;9.754;2022-12-18T02:16:00;20.57;;;8.60;;
76863;SDS011;65834;52.364;9.754;2022-12-18T02:18:40;18.07;;;8.37;;
76863;SDS011;65834;52.364;9.754;2022-12-18T02:21:18;21.43;;;8.77;;
76863;SDS011;65834;52.364;9.754;2022-12-18T02:23:57;19.73;;;8.20;;
76863;SDS011;65834;52.364;9.754;2022-12-18T02:26:43;22.00;;;10.70;;
76863;SDS011;65834;52.364;9.754;2022-12-18T02:29:21;19.60;;;9.07;;
76863;SDS011;65834;52.364;9.754;2022-12-18T02:31:54;23.43;;;8.97;;
76863;SDS011;65834;52.364;9.754;2022-12-18T02:36:59;17.55;;;8.30;;
76863;SDS011;65834;52.364;9.754;2022-12-18T02:39:33;20.97;;;8.10;;
76863;SDS011;65834;52.364;9.754;2022-12-18T02:42:08;17.73;;;7.88;;
76863;SDS011;65834;52.364;9.754;2022-12-18T02:44:42;22.60;;;9.03;;
76863;SDS011;65834;52.364;9.754;2022-12-18T02:47:17;18.83;;;8.13;;
76863;SDS011;65834;52.364;9.754;2022-12-18T02:49:52;19.30;;;7.80;;
76863;SDS011;65834;52.364;9.754;2022-12-18T02:52:31;21.47;;;9.33;;
76863;SDS011;65834;52.364;9.754;2022-12-18T02:55:15;19.03;;;8.23;;
76863;SDS011;65834;52.364;9.754;2022-12-18T02:58:04;20.90;;;8.67;;
76863;SDS011;65834;52.364;9.754;2022-12-18T03:00:41;18.40;;;8.10;;
76863;SDS011;65834;52.364;9.754;2022-12-18T03:03:18;19.97;;;8.57;;
76863;SDS011;65834;52.364;9.754;2022-12-18T03:05:53;21.03;;;9.17;;
76863;SDS011;65834;52.364;9.754;2022-12-18T03:08:28;18.73;;;8.30;;
76863;SDS011;65834;52.364;9.754;2022-12-18T03:11:01;18.80;;;9.13;;
76863;SDS011;65834;52.364;9.754;2022-12-18T03:13:37;17.93;;;8.10;;
76863;SDS011;65834;52.364;9.754;2022-12-18T03:16:12;17.37;;;7.90;;
76863;SDS011;65834;52.364;9.754;2022-12-18T03:18:46;19.43;;;8.43;;
76863;SDS011;65834;52.364;9.754;2022-12-18T03:21:19;20.70;;;8.32;;
76863;SDS011;65834;52.364;9.754;2022-12-18T03:23:53;18.47;;;9.37;;
76863;SDS011;65834;52.364;9.754;2022-12-18T03:29:03;19.10;;;7.50;;
76863;SDS011;65834;52.364;9.754;2022-12-18T03:31:36;18.57;;;7.80;;
76863;SDS011;65834;52.364;9.754;2022-12-18T03:34:09;16.33;;;8.00;;
76863;SDS011;65834;52.364;9.754;2022-12-18T03:36:45;21.33;;;9.50;;
76863;SDS011;65834;52.364;9.754;2022-12-18T03:39:15;18.10;;;8.43;;
76863;SDS011;65834;52.364;9.754;2022-12-18T03:41:52;17.30;;;9.30;;
76863;SDS011;65834;52.364;9.754;2022-12-18T03:44:44;19.37;;;9.10;;
76863;SDS011;65834;52.364;9.754;2022-12-18T03:47:25;21.17;;;9.20;;
76863;SDS011;65834;52.364;9.754;2022-12-18T03:50:03;19.37;;;8.63;;
76863;SDS011;65834;52.364;9.754;2022-12-18T03:52:45;21.07;;;8.93;;
76863;SDS011;65834;52.364;9.754;2022-12-18T03:55:19;20.40;;;9.23;;
76863;SDS011;65834;52.364;9.754;2022-12-18T03:57:57;18.60;;;9.23;;
76863;SDS011;65834;52.364;9.754;2022-12-18T04:00:41;18.73;;;8.87;;
76863;SDS011;65834;52.364;9.754;2022-12-18T04:03:11;19.87;;;8.90;;
76863;SDS011;65834;52.364;9.754;2022-12-18T04:05:46;20.33;;;9.40;;
76863;SDS011;65834;52.364;9.754;2022-12-18T04:08:20;19.33;;;8.83;;
76863;SDS011;65834;52.364;9.754;2022-12-18T04:11:00;17.90;;;8.00;;
76863;SDS011;65834;52.364;9.754;2022-12-18T04:13:32;21.57;;;9.13;;
76863;SDS011;65834;52.364;9.754;2022-12-18T04:16:15;19.83;;;9.00;;
76863;SDS011;65834;52.364;9.754;2022-12-18T04:18:48;19.60;;;9.27;;
76863;SDS011;65834;52.364;9.754;2022-12-18T04:21:19;20.47;;;9.97;;
76863;SDS011;65834;52.364;9.754;2022-12-18T04:23:49;20.13;;;8.67;;
76863;SDS011;65834;52.364;9.754;2022-12-18T04:26:20;21.73;;;9.80;;
76863;SDS011;65834;52.364;9.754;2022-12-18T04:29:10;21.50;;;9.17;;
76863;SDS011;65834;52.364;9.754;2022-12-18T04:31:43;20.70;;;8.93;;
76863;SDS011;65834;52.364;9.754;2022-12-18T04:34:14;21.13;;;9.60;;
76863;SDS011;65834;52.364;9.754;2022-12-18T04:36:48;21.90;;;9.60;;
76863;SDS011;65834;52.364;9.754;2022-12-18T04:39:19;21.03;;;9.43;;
76863;SDS011;65834;52.364;9.754;2022-12-18T04:41:52;21.67;;;9.93;;
76863;SDS011;65834;52.364;9.754;2022-12-18T04:44:22;19.57;;;8.43;;
76863;SDS011;65834;52.364;9.754;2022-12-18T04:46:54;18.53;;;8.93;;
76863;SDS011;65834;52.364;9.754;2022-12-18T04:49:24;20.33;;;9.85;;
76863;SDS011;65834;52.364;9.754;2022-12-18T04:51:54;19.93;;;9.67;;
76863;SDS011;65834;52.364;9.754;2022-12-18T04:54:23;18.27;;;7.90;;
76863;SDS011;65834;52.364;9.754;2022-12-18T04:56:53;18.40;;;8.73;;
76863;SDS011;65834;52.364;9.754;2022-12-18T04:59:22;19.37;;;9.17;;
76863;SDS011;65834;52.364;9.754;2022-12-18T05:01:54;21.17;;;9.43;;
76863;SDS011;65834;52.364;9.754;2022-12-18T05:04:24;21.17;;;9.32;;
76863;SDS011;65834;52.364;9.754;2022-12-18T05:06:54;18.73;;;9.10;;
76863;SDS011;65834;52.364;9.754;2022-12-18T05:09:23;18.23;;;8.10;;
76863;SDS011;65834;52.364;9.754;2022-12-18T05:11:53;18.87;;;8.63;;
76863;SDS011;65834;52.364;9.754;2022-12-18T05:14:22;19.07;;;8.50;;
76863;SDS011;65834;52.364;9.754;2022-12-18T05:16:56;22.00;;;9.07;;
76863;SDS011;65834;52.364;9.754;2022-12-18T05:19:26;20.30;;;9.40;;
76863;SDS011;65834;52.364;9.754;2022-12-18T05:21:56;18.37;;;8.53;;
76863;SDS011;65834;52.364;9.754;2022-12-18T05:24:26;17.93;;;7.83;;
76863;SDS011;65834;52.364;9.754;2022-12-18T05:26:55;16.47;;;7.17;;
76863;SDS011;65834;52.364;9.754;2022-12-18T05:29:25;15.77;;;7.67;;
76863;SDS011;65834;52.364;9.754;2022-12-18T05:31:57;18.43;;;8.10;;
76863;SDS011;65834;52.364;9.754;2022-12-18T05:34:27;17.23;;;7.50;;
76863;SDS011;65834;52.364;9.754;2022-12-18T05:36:57;18.50;;;7.53;;
76863;SDS011;65834;52.364;9.754;2022-12-18T05:39:27;20.03;;;8.37;;
76863;SDS011;65834;52.364;9.754;2022-12-18T05:41:56;17.53;;;7.97;;
76863;SDS011;65834;52.364;9.754;2022-12-18T05:44:26;19.47;;;8.63;;
76863;SDS011;65834;52.364;9.754;2022-12-18T05:46:58;17.13;;;7.40;;
76863;SDS011;65834;52.364;9.754;2022-12-18T05:49:28;17.60;;;7.32;;
76863;SDS011;65834;52.364;9.754;2022-12-18T05:51:57;17.83;;;8.07;;
76863;SDS011;65834;52.364;9.754;2022-12-18T05:54:27;18.33;;;8.27;;
76863;SDS011;65834;52.364;9.754;2022-12-18T05:56:57;17.20;;;6.53;;
76863;SDS011;65834;52.364;9.754;2022-12-18T05:59:27;17.50;;;7.40;;
76863;SDS011;65834;52.364;9.754;2022-12-18T06:01:59;18.47;;;8.10;;
76863;SDS011;65834;52.364;9.754;2022-12-18T06:04:29;16.77;;;7.13;;
76863;SDS011;65834;52.364;9.754;2022-12-18T06:07:04;17.93;;;6.80;;
76863;SDS011;65834;52.364;9.754;2022-12-18T06:09:34;17.73;;;7.30;;
76863;SDS011;65834;52.364;9.754;2022-12-18T06:12:04;16.83;;;6.63;;
76863;SDS011;65834;52.364;9.754;2022-12-18T06:14:34;16.13;;;7.03;;
76863;SDS011;65834;52.364;9.754;2022-12-18T06:17:06;18.17;;;7.57;;
76863;SDS011;65834;52.364;9.754;2022-12-18T06:19:36;18.27;;;7.45;;
76863;SDS011;65834;52.364;9.754;2022-12-18T06:22:05;17.77;;;7.23;;
76863;SDS011;65834;52.364;9.754;2022-12-18T06:24:35;16.00;;;7.03;;
76863;SDS011;65834;52.364;9.754;2022-12-18T06:27:05;16.50;;;6.33;;
76863;SDS011;65834;52.364;9.754;2022-12-18T06:29:34;18.33;;;6.77;;
76863;SDS011;65834;52.364;9.754;2022-12-18T06:32:06;16.43;;;6.17;;
76863;SDS011;65834;52.364;9.754;2022-12-18T06:37:06;16.93;;;7.10;;
76863;SDS011;65834;52.364;9.754;2022-12-18T06:39:35;20.93;;;7.17;;
76863;SDS011;65834;52.364;9.754;2022-12-18T06:42:05;13.37;;;5.93;;
76863;SDS011;65834;52.364;9.754;2022-12-18T06:44:34;18.17;;;7.07;;
76863;SDS011;65834;52.364;9.754;2022-12-18T06:47:07;15.30;;;7.20;;
76863;SDS011;65834;52.364;9.754;2022-12-18T06:49:36;18.02;;;7.45;;
76863;SDS011;65834;52.364;9.754;2022-12-18T06:52:06;14.87;;;6.10;;
76863;SDS011;65834;52.364;9.754;2022-12-18T06:54:35;15.50;;;6.00;;
76863;SDS011;65834;52.364;9.754;2022-12-18T06:57:05;16.70;;;6.60;;
76863;SDS011;65834;52.364;9.754;2022-12-18T06:59:34;14.80;;;6.00;;
76863;SDS011;65834;52.364;9.754;2022-12-18T07:02:09;16.70;;;6.80;;
76863;SDS011;65834;52.364;9.754;2022-12-18T07:04:41;17.73;;;7.20;;
76863;SDS011;65834;52.364;9.754;2022-12-18T07:07:10;15.33;;;6.60;;
76863;SDS011;65834;52.364;9.754;2022-12-18T07:09:40;15.17;;;6.77;;
76863;SDS011;65834;52.364;9.754;2022-12-18T07:12:09;14.33;;;6.43;;
76863;SDS011;65834;52.364;9.754;2022-12-18T07:14:39;16.70;;;6.60;;
76863;SDS011;65834;52.364;9.754;2022-12-18T07:17:11;15.97;;;6.70;;
76863;SDS011;65834;52.364;9.754;2022-12-18T07:19:40;16.08;;;6.47;;
76863;SDS011;65834;52.364;9.754;2022-12-18T07:22:10;15.97;;;7.07;;
76863;SDS011;65834;52.364;9.754;2022-12-18T07:24:39;16.13;;;6.43;;
76863;SDS011;65834;52.364;9.754;2022-12-18T07:27:09;17.10;;;7.60;;
76863;SDS011;65834;52.364;9.754;2022-12-18T07:29:38;17.53;;;7.60;;
76863;SDS011;65834;52.364;9.754;2022-12-18T07:32:10;15.13;;;6.63;;
76863;SDS011;65834;52.364;9.754;2022-12-18T07:34:40;16.55;;;6.88;;
76863;SDS011;65834;52.364;9.754;2022-12-18T07:37:10;17.90;;;7.07;;
76863;SDS011;65834;52.364;9.754;2022-12-18T07:39:40;16.87;;;7.03;;
76863;SDS011;65834;52.364;9.754;2022-12-18T07:42:09;18.10;;;7.20;;
76863;SDS011;65834;52.364;9.754;2022-12-18T07:44:52;15.95;;;6.47;;
76863;SDS011;65834;52.364;9.754;2022-12-18T07:47:24;16.60;;;6.97;;
76863;SDS011;65834;52.364;9.754;2022-12-18T07:49:56;16.67;;;6.50;;
76863;SDS011;65834;52.364;9.754;2022-12-18T07:52:26;17.57;;;7.03;;
76863;SDS011;65834;52.364;9.754;2022-12-18T07:54:56;16.70;;;7.77;;
76863;SDS011;65834;52.364;9.754;2022-12-18T07:57:25;18.63;;;7.80;;
76863;SDS011;65834;52.364;9.754;2022-12-18T08:00:15;20.30;;;7.97;;
76863;SDS011;65834;52.364;9.754;2022-12-18T08:02:49;16.53;;;7.27;;
76863;SDS011;65834;52.364;9.754;2022-12-18T08:05:19;16.02;;;6.72;;
76863;SDS011;65834;52.364;9.754;2022-12-18T08:07:49;16.60;;;8.07;;
76863;SDS011;65834;52.364;9.754;2022-12-18T08:10:19;16.80;;;7.33;;
76863;SDS011;65834;52.364;9.754;2022-12-18T08:12:49;13.63;;;6.33;;
76863;SDS011;65834;52.364;9.754;2022-12-18T08:15:19;16.70;;;7.30;;
76863;SDS011;65834;52.364;9.754;2022-12-18T08:17:51;16.27;;;7.73;;
76863;SDS011;65834;52.364;9.754;2022-12-18T08:20:21;15.95;;;7.18;;
76863;SDS011;65834;52.364;9.754;2022-12-18T08:22:50;17.37;;;7.57;;
76863;SDS011;65834;52.364;9.754;2022-12-18T08:25:20;16.97;;;7.10;;
76863;SDS011;65834;52.364;9.754;2022-12-18T08:27:50;15.53;;;7.27;;
76863;SDS011;65834;52.364;9.754;2022-12-18T08:30:20;17.90;;;8.03;;
76863;SDS011;65834;52.364;9.754;2022-12-18T08:32:53;20.37;;;7.33;;
76863;SDS011;65834;52.364;9.754;2022-12-18T08:35:23;17.83;;;7.43;;
76863;SDS011;65834;52.364;9.754;2022-12-18T08:38:01;18.63;;;7.20;;
76863;SDS011;65834;52.364;9.754;2022-12-18T08:40:30;18.33;;;7.27;;
76863;SDS011;65834;52.364;9.754;2022-12-18T08:43:00;19.13;;;7.60;;
76863;SDS011;65834;52.364;9.754;2022-12-18T08:45:42;16.42;;;7.63;;
76863;SDS011;65834;52.364;9.754;2022-12-18T08:48:14;15.63;;;6.97;;
76863;SDS011;65834;52.364;9.754;2022-12-18T08:50:53;17.60;;;7.53;;
76863;SDS011;65834;52.364;9.754;2022-12-18T08:53:24;16.20;;;7.10;;
76863;SDS011;65834;52.364;9.754;2022-12-18T08:56:02;17.57;;;7.23;;
76863;SDS011;65834;52.364;9.754;2022-12-18T08:58:32;16.73;;;6.80;;
76863;SDS011;65834;52.364;9.754;2022-12-18T09:01:01;17.93;;;7.23;;
76863;SDS011;65834;52.364;9.754;2022-12-18T09:03:34;16.90;;;7.30;;
76863;SDS011;65834;52.364;9.754;2022-12-18T09:06:05;17.20;;;7.43;;
76863;SDS011;65834;52.364;9.754;2022-12-18T09:08:35;18.13;;;7.10;;
76863;SDS011;65834;52.364;9.754;2022-12-18T09:11:09;16.73;;;6.83;;
76863;SDS011;65834;52.364;9.754;2022-12-18T09:13:42;15.87;;;6.60;;
76863;SDS011;65834;52.364;9.754;2022-12-18T09:16:11;15.00;;;6.23;;
76863;SDS011;65834;52.364;9.754;2022-12-18T09:18:43;18.33;;;7.10;;
76863;SDS011;65834;52.364;9.754;2022-12-18T09:21:14;17.25;;;7.93;;
76863;SDS011;65834;52.364;9.754;2022-12-18T09:23:48;16.63;;;6.33;;
76863;SDS011;65834;52.364;9.754;2022-12-18T09:26:18;17.97;;;8.40;;
76863;SDS011;65834;52.364;9.754;2022-12-18T09:28:48;15.57;;;7.10;;
76863;SDS011;65834;52.364;9.754;2022-12-18T09:31:18;17.03;;;7.77;;
76863;SDS011;65834;52.364;9.754;2022-12-18T09:33:52;18.23;;;6.57;;
76863;SDS011;65834;52.364;9.754;2022-12-18T09:36:23;18.77;;;7.40;;
76863;SDS011;65834;52.364;9.754;2022-12-18T09:38:53;15.60;;;7.07;;
76863;SDS011;65834;52.364;9.754;2022-12-18T09:41:28;14.17;;;6.27;;
76863;SDS011;65834;52.364;9.754;2022-12-18T09:44:10;14.07;;;5.73;;
76863;SDS011;65834;52.364;9.754;2022-12-18T09:46:47;15.10;;;6.00;;
76863;SDS011;65834;52.364;9.754;2022-12-18T09:49:25;15.63;;;6.50;;
76863;SDS011;65834;52.364;9.754;2022-12-18T09:52:00;16.27;;;6.77;;
76863;SDS011;65834;52.364;9.754;2022-12-18T09:54:35;14.70;;;6.23;;
76863;SDS011;65834;52.364;9.754;2022-12-18T09:57:10;14.93;;;6.63;;
76863;SDS011;65834;52.364;9.754;2022-12-18T09:59:42;17.57;;;7.53;;
76863;SDS011;65834;52.364;9.754;2022-12-18T10:02:16;15.03;;;5.80;;
76863;SDS011;65834;52.364;9.754;2022-12-18T10:04:53;15.75;;;6.57;;
76863;SDS011;65834;52.364;9.754;2022-12-18T10:07:34;13.40;;;5.73;;
76863;SDS011;65834;52.364;9.754;2022-12-18T10:10:14;12.80;;;5.50;;
76863;SDS011;65834;52.364;9.754;2022-12-18T10:12:53;16.33;;;6.13;;
76863;SDS011;65834;52.364;9.754;2022-12-18T10:15:31;15.73;;;6.57;;
76863;SDS011;65834;52.364;9.754;2022-12-18T10:18:10;15.53;;;5.67;;
76863;SDS011;65834;52.364;9.754;2022-12-18T10:20:55;15.07;;;6.00;;
76863;SDS011;65834;52.364;9.754;2022-12-18T10:23:32;16.67;;;6.20;;
76863;SDS011;65834;52.364;9.754;2022-12-18T10:26:13;14.60;;;6.07;;
76863;SDS011;65834;52.364;9.754;2022-12-18T10:28:43;15.53;;;6.10;;
76863;SDS011;65834;52.364;9.754;2022-12-18T10:31:14;14.40;;;5.30;;
76863;SDS011;65834;52.364;9.754;2022-12-18T10:33:48;16.73;;;6.07;;
76863;SDS011;65834;52.364;9.754;2022-12-18T10:36:22;14.17;;;5.53;;
76863;SDS011;65834;52.364;9.754;2022-12-18T10:38:52;17.33;;;5.87;;
76863;SDS011;65834;52.364;9.754;2022-12-18T10:41:25;13.97;;;5.40;;
76863;SDS011;65834;52.364;9.754;2022-12-18T10:44:10;15.70;;;5.57;;
76863;SDS011;65834;52.364;9.754;2022-12-18T10:46:43;14.37;;;5.93;;
76863;SDS011;65834;52.364;9.754;2022-12-18T10:49:18;14.03;;;5.97;;
76863;SDS011;65834;52.364;9.754;2022-12-18T10:51:53;15.13;;;5.73;;
76863;SDS011;65834;52.364;9.754;2022-12-18T10:54:35;13.33;;;5.50;;
76863;SDS011;65834;52.364;9.754;2022-12-18T10:57:15;12.90;;;5.90;;
76863;SDS011;65834;52.364;9.754;2022-12-18T10:59:50;16.40;;;5.93;;
76863;SDS011;65834;52.364;9.754;2022-12-18T11:02:25;15.23;;;6.10;;
76863;SDS011;65834;52.364;9.754;2022-12-18T11:04:57;14.90;;;5.77;;
76863;SDS011;65834;52.364;9.754;2022-12-18T11:07:32;16.37;;;5.67;;
76863;SDS011;65834;52.364;9.754;2022-12-18T11:10:17;14.33;;;6.80;;
76863;SDS011;65834;52.364;9.754;2022-12-18T11:12:48;14.17;;;6.00;;
76863;SDS011;65834;52.364;9.754;2022-12-18T11:15:19;13.60;;;5.43;;
76863;SDS011;65834;52.364;9.754;2022-12-18T11:17:50;13.93;;;5.65;;
76863;SDS011;65834;52.364;9.754;2022-12-18T11:20:23;13.73;;;5.10;;
76863;SDS011;65834;52.364;9.754;2022-12-18T11:23:02;12.90;;;5.33;;
76863;SDS011;65834;52.364;9.754;2022-12-18T11:25:34;11.77;;;5.27;;
76863;SDS011;65834;52.364;9.754;2022-12-18T11:28:05;12.37;;;5.07;;
76863;SDS011;65834;52.364;9.754;2022-12-18T11:31:08;13.30;;;5.57;;
76863;SDS011;65834;52.364;9.754;2022-12-18T11:33:42;14.50;;;5.30;;
76863;SDS011;65834;52.364;9.754;2022-12-18T11:36:36;12.87;;;5.10;;
76863;SDS011;65834;52.364;9.754;2022-12-18T11:39:15;13.50;;;5.63;;
76863;SDS011;65834;52.364;9.754;2022-12-18T11:41:50;12.63;;;5.13;;
76863;SDS011;65834;52.364;9.754;2022-12-18T11:44:41;10.43;;;4.80;;
76863;SDS011;65834;52.364;9.754;2022-12-18T11:47:22;13.73;;;4.97;;
76863;SDS011;65834;52.364;9.754;2022-12-18T11:49:59;11.23;;;5.00;;
76863;SDS011;65834;52.364;9.754;2022-12-18T11:52:31;10.40;;;4.30;;
76863;SDS011;65834;52.364;9.754;2022-12-18T11:55:11;14.63;;;4.27;;
76863;SDS011;65834;52.364;9.754;2022-12-18T11:57:46;11.50;;;5.03;;
76863;SDS011;65834;52.364;9.754;2022-12-18T12:00:24;12.87;;;4.90;;
76863;SDS011;65834;52.364;9.754;2022-12-18T12:03:02;12.40;;;4.73;;
76863;SDS011;65834;52.364;9.754;2022-12-18T12:05:58;11.77;;;4.70;;
76863;SDS011;65834;52.364;9.754;2022-12-18T12:08:37;10.50;;;4.20;;
76863;SDS011;65834;52.364;9.754;2022-12-18T12:11:20;11.73;;;4.50;;
76863;SDS011;65834;52.364;9.754;2022-12-18T12:14:04;12.10;;;4.17;;
76863;SDS011;65834;52.364;9.754;2022-12-18T12:16:53;10.53;;;4.70;;
76863;SDS011;65834;52.364;9.754;2022-12-18T12:19:31;11.20;;;4.57;;
76863;SDS011;65834;52.364;9.754;2022-12-18T12:22:10;13.80;;;5.33;;
76863;SDS011;65834;52.364;9.754;2022-12-18T12:24:49;12.00;;;4.33;;
76863;SDS011;65834;52.364;9.754;2022-12-18T12:27:36;13.13;;;4.90;;
76863;SDS011;65834;52.364;9.754;2022-12-18T12:30:15;12.17;;;5.00;;
76863;SDS011;65834;52.364;9.754;2022-12-18T12:32:55;9.77;;;4.10;;
76863;SDS011;65834;52.364;9.754;2022-12-18T12:35:37;11.47;;;4.77;;
76863;SDS011;65834;52.364;9.754;2022-12-18T12:38:18;11.03;;;4.53;;
76863;SDS011;65834;52.364;9.754;2022-12-18T12:40:51;12.80;;;4.57;;
76863;SDS011;65834;52.364;9.754;2022-12-18T12:43:35;11.93;;;4.27;;
76863;SDS011;65834;52.364;9.754;2022-12-18T12:46:15;11.03;;;4.13;;
76863;SDS011;65834;52.364;9.754;2022-12-18T12:48:49;12.70;;;5.30;;
76863;SDS011;65834;52.364;9.754;2022-12-18T12:51:22;14.37;;;5.90;;
76863;SDS011;65834;52.364;9.754;2022-12-18T12:53:55;12.20;;;4.77;;
76863;SDS011;65834;52.364;9.754;2022-12-18T12:56:27;14.35;;;5.28;;
76863;SDS011;65834;52.364;9.754;2022-12-18T12:59:06;13.57;;;5.47;;
76863;SDS011;65834;52.364;9.754;2022-12-18T13:01:49;14.60;;;5.33;;
76863;SDS011;65834;52.364;9.754;2022-12-18T13:04:27;13.33;;;5.20;;
76863;SDS011;65834;52.364;9.754;2022-12-18T13:07:06;13.13;;;5.97;;
76863;SDS011;65834;52.364;9.754;2022-12-18T13:15:39;14.60;;;6.53;;
76863;SDS011;65834;52.364;9.754;2022-12-18T13:18:16;15.53;;;6.20;;
76863;SDS011;65834;52.364;9.754;2022-12-18T13:20:49;19.50;;;7.20;;
76863;SDS011;65834;52.364;9.754;2022-12-18T13:23:29;19.40;;;7.43;;
76863;SDS011;65834;52.364;9.754;2022-12-18T13:29:02;16.77;;;7.30;;
76863;SDS011;65834;52.364;9.754;2022-12-18T13:34:47;17.07;;;7.83;;
76863;SDS011;65834;52.364;9.754;2022-12-18T13:43:35;17.23;;;8.50;;
76863;SDS011;65834;52.364;9.754;2022-12-18T13:46:20;20.05;;;9.90;;
76863;SDS011;65834;52.364;9.754;2022-12-18T13:48:53;21.50;;;9.82;;
76863;SDS011;65834;52.364;9.754;2022-12-18T13:51:29;21.30;;;9.50;;
76863;SDS011;65834;52.364;9.754;2022-12-18T13:54:02;25.73;;;10.80;;
76863;SDS011;65834;52.364;9.754;2022-12-18T13:56:45;23.43;;;11.03;;
76863;SDS011;65834;52.364;9.754;2022-12-18T13:59:18;21.70;;;9.75;;
76863;SDS011;65834;52.364;9.754;2022-12-18T14:01:52;22.40;;;9.27;;
76863;SDS011;65834;52.364;9.754;2022-12-18T14:04:25;23.10;;;10.80;;
76863;SDS011;65834;52.364;9.754;2022-12-18T14:07:01;23.50;;;10.13;;
76863;SDS011;65834;52.364;9.754;2022-12-18T14:09:34;22.00;;;10.80;;
76863;SDS011;65834;52.364;9.754;2022-12-18T14:12:06;19.08;;;9.93;;
76863;SDS011;65834;52.364;9.754;2022-12-18T14:14:56;18.67;;;10.23;;
76863;SDS011;65834;52.364;9.754;2022-12-18T14:17:25;23.50;;;9.80;;
76863;SDS011;65834;52.364;9.754;2022-12-18T14:19:56;20.43;;;10.10;;
76863;SDS011;65834;52.364;9.754;2022-12-18T14:22:29;21.23;;;10.30;;
76863;SDS011;65834;52.364;9.754;2022-12-18T14:25:13;21.53;;;10.90;;
76863;SDS011;65834;52.364;9.754;2022-12-18T14:27:45;22.20;;;12.07;;
76863;SDS011;65834;52.364;9.754;2022-12-18T14:30:23;23.97;;;11.30;;
76863;SDS011;65834;52.364;9.754;2022-12-18T14:33:01;23.00;;;9.73;;
76863;SDS011;65834;52.364;9.754;2022-12-18T14:35:32;23.63;;;11.80;;
76863;SDS011;65834;52.364;9.754;2022-12-18T14:38:15;25.30;;;11.60;;
76863;SDS011;65834;52.364;9.754;2022-12-18T14:40:53;25.93;;;11.97;;
76863;SDS011;65834;52.364;9.754;2022-12-18T14:43:24;24.13;;;10.30;;
76863;SDS011;65834;52.364;9.754;2022-12-18T14:45:54;22.60;;;11.10;;
76863;SDS011;65834;52.364;9.754;2022-12-18T14:48:33;22.83;;;11.03;;
76863;SDS011;65834;52.364;9.754;2022-12-18T14:51:05;24.80;;;12.57;;
76863;SDS011;65834;52.364;9.754;2022-12-18T14:53:47;24.17;;;11.37;;
76863;SDS011;65834;52.364;9.754;2022-12-18T14:56:21;23.50;;;11.50;;
76863;SDS011;65834;52.364;9.754;2022-12-18T14:58:53;23.02;;;10.82;;
76863;SDS011;65834;52.364;9.754;2022-12-18T15:01:28;23.48;;;11.27;;
76863;SDS011;65834;52.364;9.754;2022-12-18T15:04:01;24.33;;;12.20;;
76863;SDS011;65834;52.364;9.754;2022-12-18T15:06:32;26.83;;;12.03;;
76863;SDS011;65834;52.364;9.754;2022-12-18T15:09:18;24.02;;;11.40;;
76863;SDS011;65834;52.364;9.754;2022-12-18T15:11:54;22.90;;;11.20;;
76863;SDS011;65834;52.364;9.754;2022-12-18T15:14:33;24.63;;;11.33;;
76863;SDS011;65834;52.364;9.754;2022-12-18T15:17:05;25.23;;;11.70;;
76863;SDS011;65834;52.364;9.754;2022-12-18T15:19:43;28.17;;;13.63;;
76863;SDS011;65834;52.364;9.754;2022-12-18T15:22:18;25.13;;;13.00;;
76863;SDS011;65834;52.364;9.754;2022-12-18T15:24:53;27.43;;;12.87;;
76863;SDS011;65834;52.364;9.754;2022-12-18T15:27:25;26.40;;;12.23;;
76863;SDS011;65834;52.364;9.754;2022-12-18T15:30:01;25.90;;;13.13;;
76863;SDS011;65834;52.364;9.754;2022-12-18T15:32:46;23.87;;;12.20;;
76863;SDS011;65834;52.364;9.754;2022-12-18T15:35:17;27.37;;;12.63;;
76863;SDS011;65834;52.364;9.754;2022-12-18T15:37:48;24.33;;;12.65;;
76863;SDS011;65834;52.364;9.754;2022-12-18T15:40:21;24.03;;;11.40;;
76863;SDS011;65834;52.364;9.754;2022-12-18T15:42:53;25.37;;;13.20;;